sensor_id;sensor_type;location;lat;lon;timestamp;P1;durP1;ratioP1;P2;durP2;ratioP2
21661;SDS011;10992;48.170;8.596;2022-08-19T00:01:24;34.60;;;30.90;;
21661;SDS011;10992;48.170;8.596;2022-08-19T00:03:59;36.03;;;32.15;;
21661;SDS011;10992;48.170;8.596;2022-08-19T00:06:29;36.78;;;32.45;;
21661;SDS011;10992;48.170;8.596;2022-08-19T00:08:57;37.25;;;32.83;;
21661;SDS011;10992;48.170;8.596;2022-08-19T00:11:26;38.22;;;34.05;;
21661;SDS011;10992;48.170;8.596;2022-08-19T00:13:54;38.92;;;33.90;;
21661;SDS011;10992;48.170;8.596;2022-08-19T00:16:23;38.50;;;34.13;;
21661;SDS011;10992;48.170;8.596;2022-08-19T00:18:52;42.55;;;35.22;;
21661;SDS011;10992;48.170;8.596;2022-08-19T00:21:20;42.38;;;35.75;;
21661;SDS011;10992;48.170;8.596;2022-08-19T00:23:47;37.00;;;33.05;;
21661;SDS011;10992;48.170;8.596;2022-08-19T00:26:14;38.50;;;33.20;;
21661;SDS011;10992;48.170;8.596;2022-08-19T00:28:41;44.50;;;35.60;;
21661;SDS011;10992;48.170;8.596;2022-08-19T00:31:08;41.00;;;36.03;;
21661;SDS011;10992;48.170;8.596;2022-08-19T00:33:35;40.95;;;36.28;;
21661;SDS011;10992;48.170;8.596;2022-08-19T00:36:04;44.30;;;37.58;;
21661;SDS011;10992;48.170;8.596;2022-08-19T00:38:35;43.00;;;37.05;;
21661;SDS011;10992;48.170;8.596;2022-08-19T00:41:06;44.38;;;37.05;;
21661;SDS011;10992;48.170;8.596;2022-08-19T00:43:34;48.08;;;38.15;;
21661;SDS011;10992;48.170;8.596;2022-08-19T00:46:01;49.60;;;38.42;;
21661;SDS011;10992;48.170;8.596;2022-08-19T00:48:31;46.80;;;39.35;;
21661;SDS011;10992;48.170;8.596;2022-08-19T00:50:59;48.33;;;40.08;;
21661;SDS011;10992;48.170;8.596;2022-08-19T00:53:29;56.70;;;41.90;;
21661;SDS011;10992;48.170;8.596;2022-08-19T00:56:00;54.88;;;42.08;;
21661;SDS011;10992;48.170;8.596;2022-08-19T00:58:30;51.33;;;40.45;;
21661;SDS011;10992;48.170;8.596;2022-08-19T01:01:00;52.92;;;41.40;;
21661;SDS011;10992;48.170;8.596;2022-08-19T01:03:28;49.88;;;40.58;;
21661;SDS011;10992;48.170;8.596;2022-08-19T01:06:15;51.47;;;40.90;;
21661;SDS011;10992;48.170;8.596;2022-08-19T01:08:46;45.63;;;38.15;;
21661;SDS011;10992;48.170;8.596;2022-08-19T01:11:15;51.00;;;40.47;;
21661;SDS011;10992;48.170;8.596;2022-08-19T01:13:43;52.85;;;41.45;;
21661;SDS011;10992;48.170;8.596;2022-08-19T01:16:15;49.78;;;39.22;;
21661;SDS011;10992;48.170;8.596;2022-08-19T01:18:45;52.72;;;39.63;;
21661;SDS011;10992;48.170;8.596;2022-08-19T01:21:16;44.70;;;37.10;;
21661;SDS011;10992;48.170;8.596;2022-08-19T01:23:51;46.00;;;39.70;;
21661;SDS011;10992;48.170;8.596;2022-08-19T01:26:19;48.15;;;37.70;;
21661;SDS011;10992;48.170;8.596;2022-08-19T01:28:50;52.63;;;40.60;;
21661;SDS011;10992;48.170;8.596;2022-08-19T01:31:24;51.15;;;40.63;;
21661;SDS011;10992;48.170;8.596;2022-08-19T01:33:58;53.63;;;39.97;;
21661;SDS011;10992;48.170;8.596;2022-08-19T01:36:28;53.35;;;40.22;;
21661;SDS011;10992;48.170;8.596;2022-08-19T01:39:04;54.40;;;40.85;;
21661;SDS011;10992;48.170;8.596;2022-08-19T01:41:33;56.85;;;41.95;;
21661;SDS011;10992;48.170;8.596;2022-08-19T01:44:00;49.38;;;38.28;;
21661;SDS011;10992;48.170;8.596;2022-08-19T01:46:44;56.50;;;42.35;;
21661;SDS011;10992;48.170;8.596;2022-08-19T01:49:17;56.47;;;40.58;;
21661;SDS011;10992;48.170;8.596;2022-08-19T01:51:45;56.40;;;40.65;;
21661;SDS011;10992;48.170;8.596;2022-08-19T01:54:13;56.08;;;41.58;;
21661;SDS011;10992;48.170;8.596;2022-08-19T01:56:53;57.80;;;41.15;;
21661;SDS011;10992;48.170;8.596;2022-08-19T01:59:25;54.78;;;39.75;;
21661;SDS011;10992;48.170;8.596;2022-08-19T02:01:52;53.25;;;39.53;;
21661;SDS011;10992;48.170;8.596;2022-08-19T02:04:19;54.97;;;40.83;;
21661;SDS011;10992;48.170;8.596;2022-08-19T02:06:47;46.45;;;37.20;;
21661;SDS011;10992;48.170;8.596;2022-08-19T02:09:14;55.60;;;38.50;;
21661;SDS011;10992;48.170;8.596;2022-08-19T02:11:42;52.70;;;38.70;;
21661;SDS011;10992;48.170;8.596;2022-08-19T02:14:09;47.28;;;38.08;;
21661;SDS011;10992;48.170;8.596;2022-08-19T02:16:36;55.08;;;40.88;;
21661;SDS011;10992;48.170;8.596;2022-08-19T02:19:04;53.83;;;40.40;;
21661;SDS011;10992;48.170;8.596;2022-08-19T02:21:31;60.80;;;40.85;;
21661;SDS011;10992;48.170;8.596;2022-08-19T02:23:59;56.80;;;42.05;;
21661;SDS011;10992;48.170;8.596;2022-08-19T02:26:26;58.22;;;41.03;;
21661;SDS011;10992;48.170;8.596;2022-08-19T02:28:54;59.78;;;41.25;;
21661;SDS011;10992;48.170;8.596;2022-08-19T02:31:22;53.95;;;40.90;;
21661;SDS011;10992;48.170;8.596;2022-08-19T02:33:51;58.28;;;41.63;;
21661;SDS011;10992;48.170;8.596;2022-08-19T02:36:22;64.43;;;43.08;;
21661;SDS011;10992;48.170;8.596;2022-08-19T02:38:50;62.92;;;43.03;;
21661;SDS011;10992;48.170;8.596;2022-08-19T02:41:24;58.38;;;41.83;;
21661;SDS011;10992;48.170;8.596;2022-08-19T02:43:55;64.13;;;43.55;;
21661;SDS011;10992;48.170;8.596;2022-08-19T02:46:44;62.83;;;43.90;;
21661;SDS011;10992;48.170;8.596;2022-08-19T02:49:13;68.10;;;46.40;;
21661;SDS011;10992;48.170;8.596;2022-08-19T02:51:43;62.22;;;43.22;;
21661;SDS011;10992;48.170;8.596;2022-08-19T02:54:11;59.53;;;42.90;;
21661;SDS011;10992;48.170;8.596;2022-08-19T02:56:39;61.58;;;43.58;;
21661;SDS011;10992;48.170;8.596;2022-08-19T02:59:07;64.10;;;44.58;;
21661;SDS011;10992;48.170;8.596;2022-08-19T03:01:37;64.53;;;45.38;;
21661;SDS011;10992;48.170;8.596;2022-08-19T03:04:07;63.75;;;43.60;;
21661;SDS011;10992;48.170;8.596;2022-08-19T03:06:36;65.07;;;44.65;;
21661;SDS011;10992;48.170;8.596;2022-08-19T03:09:08;64.68;;;43.85;;
21661;SDS011;10992;48.170;8.596;2022-08-19T03:11:35;58.75;;;42.60;;
21661;SDS011;10992;48.170;8.596;2022-08-19T03:14:03;57.05;;;41.75;;
21661;SDS011;10992;48.170;8.596;2022-08-19T03:16:31;56.00;;;40.50;;
21661;SDS011;10992;48.170;8.596;2022-08-19T03:19:00;53.92;;;40.65;;
21661;SDS011;10992;48.170;8.596;2022-08-19T03:21:29;61.63;;;43.75;;
21661;SDS011;10992;48.170;8.596;2022-08-19T03:23:58;54.70;;;39.78;;
21661;SDS011;10992;48.170;8.596;2022-08-19T03:26:27;58.38;;;41.78;;
21661;SDS011;10992;48.170;8.596;2022-08-19T03:28:54;55.50;;;39.72;;
21661;SDS011;10992;48.170;8.596;2022-08-19T03:31:24;57.47;;;41.35;;
21661;SDS011;10992;48.170;8.596;2022-08-19T03:34:14;65.30;;;41.92;;
21661;SDS011;10992;48.170;8.596;2022-08-19T03:36:44;56.80;;;40.78;;
21661;SDS011;10992;48.170;8.596;2022-08-19T03:39:12;58.53;;;41.97;;
21661;SDS011;10992;48.170;8.596;2022-08-19T03:41:40;54.88;;;41.20;;
21661;SDS011;10992;48.170;8.596;2022-08-19T03:44:18;58.78;;;42.15;;
21661;SDS011;10992;48.170;8.596;2022-08-19T03:46:48;59.13;;;44.08;;
21661;SDS011;10992;48.170;8.596;2022-08-19T03:49:17;54.53;;;41.80;;
21661;SDS011;10992;48.170;8.596;2022-08-19T03:51:45;64.63;;;45.42;;
21661;SDS011;10992;48.170;8.596;2022-08-19T03:54:15;54.20;;;40.95;;
21661;SDS011;10992;48.170;8.596;2022-08-19T03:56:47;63.03;;;44.15;;
21661;SDS011;10992;48.170;8.596;2022-08-19T03:59:19;59.58;;;43.22;;
21661;SDS011;10992;48.170;8.596;2022-08-19T04:01:55;58.03;;;43.30;;
21661;SDS011;10992;48.170;8.596;2022-08-19T04:04:25;52.97;;;41.00;;
21661;SDS011;10992;48.170;8.596;2022-08-19T04:06:54;57.33;;;43.80;;
21661;SDS011;10992;48.170;8.596;2022-08-19T04:09:22;53.47;;;42.33;;
21661;SDS011;10992;48.170;8.596;2022-08-19T04:11:50;54.80;;;42.88;;
21661;SDS011;10992;48.170;8.596;2022-08-19T04:14:20;51.45;;;39.65;;
21661;SDS011;10992;48.170;8.596;2022-08-19T04:16:50;49.95;;;39.72;;
21661;SDS011;10992;48.170;8.596;2022-08-19T04:19:19;50.15;;;39.55;;
21661;SDS011;10992;48.170;8.596;2022-08-19T04:21:47;50.33;;;39.92;;
21661;SDS011;10992;48.170;8.596;2022-08-19T04:24:18;47.97;;;38.80;;
21661;SDS011;10992;48.170;8.596;2022-08-19T04:26:45;46.10;;;37.30;;
21661;SDS011;10992;48.170;8.596;2022-08-19T04:29:13;48.40;;;39.63;;
21661;SDS011;10992;48.170;8.596;2022-08-19T04:31:43;51.35;;;40.50;;
21661;SDS011;10992;48.170;8.596;2022-08-19T04:34:12;52.08;;;40.28;;
21661;SDS011;10992;48.170;8.596;2022-08-19T04:36:40;54.05;;;41.53;;
21661;SDS011;10992;48.170;8.596;2022-08-19T04:39:15;51.30;;;40.58;;
21661;SDS011;10992;48.170;8.596;2022-08-19T04:41:44;55.78;;;42.47;;
21661;SDS011;10992;48.170;8.596;2022-08-19T04:44:33;54.65;;;41.90;;
21661;SDS011;10992;48.170;8.596;2022-08-19T04:47:11;56.80;;;41.72;;
21661;SDS011;10992;48.170;8.596;2022-08-19T04:49:38;48.75;;;40.85;;
21661;SDS011;10992;48.170;8.596;2022-08-19T04:52:05;55.13;;;41.83;;
21661;SDS011;10992;48.170;8.596;2022-08-19T04:54:32;53.75;;;40.53;;
21661;SDS011;10992;48.170;8.596;2022-08-19T04:57:05;61.25;;;44.67;;
21661;SDS011;10992;48.170;8.596;2022-08-19T04:59:35;50.47;;;39.90;;
21661;SDS011;10992;48.170;8.596;2022-08-19T05:02:03;55.50;;;41.95;;
21661;SDS011;10992;48.170;8.596;2022-08-19T05:04:30;59.35;;;42.75;;
21661;SDS011;10992;48.170;8.596;2022-08-19T05:06:59;58.17;;;43.35;;
21661;SDS011;10992;48.170;8.596;2022-08-19T05:09:28;57.45;;;43.15;;
21661;SDS011;10992;48.170;8.596;2022-08-19T05:12:15;58.65;;;43.47;;
21661;SDS011;10992;48.170;8.596;2022-08-19T05:14:43;55.67;;;41.88;;
21661;SDS011;10992;48.170;8.596;2022-08-19T05:17:11;56.58;;;41.63;;
21661;SDS011;10992;48.170;8.596;2022-08-19T05:19:58;53.78;;;41.63;;
21661;SDS011;10992;48.170;8.596;2022-08-19T05:22:44;59.08;;;42.28;;
21661;SDS011;10992;48.170;8.596;2022-08-19T05:25:16;52.45;;;40.08;;
21661;SDS011;10992;48.170;8.596;2022-08-19T05:27:47;56.20;;;42.08;;
21661;SDS011;10992;48.170;8.596;2022-08-19T05:30:14;54.75;;;41.35;;
21661;SDS011;10992;48.170;8.596;2022-08-19T05:32:42;56.13;;;41.47;;
21661;SDS011;10992;48.170;8.596;2022-08-19T05:35:09;47.42;;;36.92;;
21661;SDS011;10992;48.170;8.596;2022-08-19T05:37:37;54.40;;;41.35;;
21661;SDS011;10992;48.170;8.596;2022-08-19T05:40:06;49.40;;;38.97;;
21661;SDS011;10992;48.170;8.596;2022-08-19T05:42:34;53.17;;;39.35;;
21661;SDS011;10992;48.170;8.596;2022-08-19T05:45:02;53.45;;;39.72;;
21661;SDS011;10992;48.170;8.596;2022-08-19T05:47:30;50.08;;;39.35;;
21661;SDS011;10992;48.170;8.596;2022-08-19T05:49:56;50.75;;;39.97;;
21661;SDS011;10992;48.170;8.596;2022-08-19T05:52:23;52.92;;;39.85;;
21661;SDS011;10992;48.170;8.596;2022-08-19T05:54:52;57.13;;;40.85;;
21661;SDS011;10992;48.170;8.596;2022-08-19T05:57:22;52.85;;;39.58;;
21661;SDS011;10992;48.170;8.596;2022-08-19T05:59:50;50.35;;;39.38;;
21661;SDS011;10992;48.170;8.596;2022-08-19T06:02:27;50.88;;;39.40;;
21661;SDS011;10992;48.170;8.596;2022-08-19T06:04:55;47.85;;;36.92;;
21661;SDS011;10992;48.170;8.596;2022-08-19T06:07:21;53.80;;;38.65;;
21661;SDS011;10992;48.170;8.596;2022-08-19T06:09:49;49.28;;;37.90;;
21661;SDS011;10992;48.170;8.596;2022-08-19T06:12:35;52.95;;;37.95;;
21661;SDS011;10992;48.170;8.596;2022-08-19T06:15:09;57.03;;;40.67;;
21661;SDS011;10992;48.170;8.596;2022-08-19T06:17:38;53.60;;;39.30;;
21661;SDS011;10992;48.170;8.596;2022-08-19T06:20:06;51.60;;;37.88;;
21661;SDS011;10992;48.170;8.596;2022-08-19T06:22:40;53.65;;;39.47;;
21661;SDS011;10992;48.170;8.596;2022-08-19T06:25:09;50.75;;;37.90;;
21661;SDS011;10992;48.170;8.596;2022-08-19T06:27:36;54.15;;;39.58;;
21661;SDS011;10992;48.170;8.596;2022-08-19T06:30:18;49.55;;;36.55;;
21661;SDS011;10992;48.170;8.596;2022-08-19T06:32:45;49.83;;;37.65;;
21661;SDS011;10992;48.170;8.596;2022-08-19T06:35:12;48.28;;;35.88;;
21661;SDS011;10992;48.170;8.596;2022-08-19T06:37:40;50.35;;;39.42;;
21661;SDS011;10992;48.170;8.596;2022-08-19T06:40:09;47.03;;;36.40;;
21661;SDS011;10992;48.170;8.596;2022-08-19T06:42:37;54.78;;;39.15;;
21661;SDS011;10992;48.170;8.596;2022-08-19T06:45:08;49.78;;;38.25;;
21661;SDS011;10992;48.170;8.596;2022-08-19T06:47:35;56.92;;;39.15;;
21661;SDS011;10992;48.170;8.596;2022-08-19T06:50:02;57.75;;;39.78;;
21661;SDS011;10992;48.170;8.596;2022-08-19T06:52:31;54.90;;;39.50;;
21661;SDS011;10992;48.170;8.596;2022-08-19T06:55:02;54.28;;;39.28;;
21661;SDS011;10992;48.170;8.596;2022-08-19T06:57:32;55.45;;;38.60;;
21661;SDS011;10992;48.170;8.596;2022-08-19T06:59:59;49.90;;;38.58;;
21661;SDS011;10992;48.170;8.596;2022-08-19T07:02:26;53.88;;;38.75;;
21661;SDS011;10992;48.170;8.596;2022-08-19T07:04:53;55.17;;;39.58;;
21661;SDS011;10992;48.170;8.596;2022-08-19T07:07:22;53.85;;;38.90;;
21661;SDS011;10992;48.170;8.596;2022-08-19T07:09:50;48.05;;;36.78;;
21661;SDS011;10992;48.170;8.596;2022-08-19T07:12:25;47.58;;;38.63;;
21661;SDS011;10992;48.170;8.596;2022-08-19T07:15:01;57.33;;;40.17;;
21661;SDS011;10992;48.170;8.596;2022-08-19T07:17:31;50.13;;;37.22;;
21661;SDS011;10992;48.170;8.596;2022-08-19T07:20:00;50.97;;;37.17;;
21661;SDS011;10992;48.170;8.596;2022-08-19T07:22:34;51.75;;;38.00;;
21661;SDS011;10992;48.170;8.596;2022-08-19T07:25:03;46.90;;;34.95;;
21661;SDS011;10992;48.170;8.596;2022-08-19T07:27:31;45.85;;;36.13;;
21661;SDS011;10992;48.170;8.596;2022-08-19T07:30:00;44.42;;;35.47;;
21661;SDS011;10992;48.170;8.596;2022-08-19T07:32:27;42.78;;;35.35;;
21661;SDS011;10992;48.170;8.596;2022-08-19T07:34:54;43.20;;;34.80;;
21661;SDS011;10992;48.170;8.596;2022-08-19T07:37:23;44.38;;;34.78;;
21661;SDS011;10992;48.170;8.596;2022-08-19T07:39:58;40.28;;;32.55;;
21661;SDS011;10992;48.170;8.596;2022-08-19T07:42:25;39.30;;;33.53;;
21661;SDS011;10992;48.170;8.596;2022-08-19T07:44:52;39.38;;;32.22;;
21661;SDS011;10992;48.170;8.596;2022-08-19T07:47:19;39.58;;;31.60;;
21661;SDS011;10992;48.170;8.596;2022-08-19T07:50:07;43.20;;;34.55;;
21661;SDS011;10992;48.170;8.596;2022-08-19T07:52:36;43.05;;;33.00;;
21661;SDS011;10992;48.170;8.596;2022-08-19T07:55:06;39.67;;;33.08;;
21661;SDS011;10992;48.170;8.596;2022-08-19T07:57:54;36.00;;;31.13;;
21661;SDS011;10992;48.170;8.596;2022-08-19T08:00:24;38.92;;;32.85;;
21661;SDS011;10992;48.170;8.596;2022-08-19T08:02:52;38.40;;;32.58;;
21661;SDS011;10992;48.170;8.596;2022-08-19T08:05:21;42.53;;;33.92;;
21661;SDS011;10992;48.170;8.596;2022-08-19T08:08:09;37.13;;;30.95;;
21661;SDS011;10992;48.170;8.596;2022-08-19T08:10:57;38.10;;;32.45;;
21661;SDS011;10992;48.170;8.596;2022-08-19T08:13:25;39.22;;;31.65;;
21661;SDS011;10992;48.170;8.596;2022-08-19T08:15:53;36.97;;;32.17;;
21661;SDS011;10992;48.170;8.596;2022-08-19T08:18:22;38.65;;;30.13;;
21661;SDS011;10992;48.170;8.596;2022-08-19T08:20:53;39.85;;;32.83;;
21661;SDS011;10992;48.170;8.596;2022-08-19T08:23:24;43.50;;;31.55;;
21661;SDS011;10992;48.170;8.596;2022-08-19T08:25:52;38.72;;;31.15;;
21661;SDS011;10992;48.170;8.596;2022-08-19T08:28:21;34.33;;;30.30;;
21661;SDS011;10992;48.170;8.596;2022-08-19T08:30:49;36.38;;;30.70;;
21661;SDS011;10992;48.170;8.596;2022-08-19T08:33:19;36.38;;;30.40;;
21661;SDS011;10992;48.170;8.596;2022-08-19T08:36:06;39.60;;;31.35;;
21661;SDS011;10992;48.170;8.596;2022-08-19T08:38:33;37.05;;;31.33;;
21661;SDS011;10992;48.170;8.596;2022-08-19T08:41:15;39.92;;;32.50;;
21661;SDS011;10992;48.170;8.596;2022-08-19T08:43:47;36.28;;;29.98;;
21661;SDS011;10992;48.170;8.596;2022-08-19T08:52:52;37.90;;;31.52;;
21661;SDS011;10992;48.170;8.596;2022-08-19T08:55:07;37.35;;;31.48;;
21661;SDS011;10992;48.170;8.596;2022-08-19T08:57:39;39.30;;;32.20;;
21661;SDS011;10992;48.170;8.596;2022-08-19T09:00:20;38.10;;;33.10;;
21661;SDS011;10992;48.170;8.596;2022-08-19T09:02:51;40.35;;;33.20;;
21661;SDS011;10992;48.170;8.596;2022-08-19T09:05:20;40.28;;;30.80;;
21661;SDS011;10992;48.170;8.596;2022-08-19T09:08:03;36.17;;;31.25;;
21661;SDS011;10992;48.170;8.596;2022-08-19T09:13:54;39.83;;;32.80;;
21661;SDS011;10992;48.170;8.596;2022-08-19T09:17:02;41.17;;;32.22;;
21661;SDS011;10992;48.170;8.596;2022-08-19T09:19:35;40.45;;;32.78;;
21661;SDS011;10992;48.170;8.596;2022-08-19T09:22:13;46.58;;;33.95;;
21661;SDS011;10992;48.170;8.596;2022-08-19T09:24:51;43.38;;;35.03;;
21661;SDS011;10992;48.170;8.596;2022-08-19T09:27:19;41.53;;;32.40;;
21661;SDS011;10992;48.170;8.596;2022-08-19T09:30:08;37.92;;;32.85;;
21661;SDS011;10992;48.170;8.596;2022-08-19T09:32:44;35.80;;;31.23;;
21661;SDS011;10992;48.170;8.596;2022-08-19T09:35:12;37.63;;;32.42;;
21661;SDS011;10992;48.170;8.596;2022-08-19T09:37:41;34.80;;;30.70;;
21661;SDS011;10992;48.170;8.596;2022-08-19T09:40:10;39.00;;;32.33;;
21661;SDS011;10992;48.170;8.596;2022-08-19T09:42:38;40.72;;;33.17;;
21661;SDS011;10992;48.170;8.596;2022-08-19T09:45:18;42.88;;;34.30;;
21661;SDS011;10992;48.170;8.596;2022-08-19T09:47:49;39.03;;;33.05;;
21661;SDS011;10992;48.170;8.596;2022-08-19T09:50:20;37.97;;;32.03;;
21661;SDS011;10992;48.170;8.596;2022-08-19T09:52:48;40.92;;;34.13;;
21661;SDS011;10992;48.170;8.596;2022-08-19T09:55:23;36.58;;;31.50;;
21661;SDS011;10992;48.170;8.596;2022-08-19T09:57:59;39.33;;;32.63;;
21661;SDS011;10992;48.170;8.596;2022-08-19T10:00:28;39.88;;;34.72;;
21661;SDS011;10992;48.170;8.596;2022-08-19T10:02:56;37.22;;;33.05;;
21661;SDS011;10992;48.170;8.596;2022-08-19T10:05:23;39.30;;;31.90;;
21661;SDS011;10992;48.170;8.596;2022-08-19T10:08:09;35.60;;;31.67;;
21661;SDS011;10992;48.170;8.596;2022-08-19T10:10:40;38.25;;;31.95;;
21661;SDS011;10992;48.170;8.596;2022-08-19T10:13:13;41.42;;;34.05;;
21661;SDS011;10992;48.170;8.596;2022-08-19T10:15:43;38.10;;;33.20;;
21661;SDS011;10992;48.170;8.596;2022-08-19T10:18:15;39.35;;;32.92;;
21661;SDS011;10992;48.170;8.596;2022-08-19T10:20:45;38.35;;;34.10;;
21661;SDS011;10992;48.170;8.596;2022-08-19T10:23:17;36.47;;;31.10;;
21661;SDS011;10992;48.170;8.596;2022-08-19T10:25:46;37.38;;;32.25;;
21661;SDS011;10992;48.170;8.596;2022-08-19T10:28:14;37.33;;;31.35;;
21661;SDS011;10992;48.170;8.596;2022-08-19T10:30:44;36.33;;;32.35;;
21661;SDS011;10992;48.170;8.596;2022-08-19T10:33:11;33.95;;;30.35;;
21661;SDS011;10992;48.170;8.596;2022-08-19T10:35:38;36.42;;;30.88;;
21661;SDS011;10992;48.170;8.596;2022-08-19T10:38:21;34.63;;;30.58;;
21661;SDS011;10992;48.170;8.596;2022-08-19T10:40:58;35.25;;;30.38;;
21661;SDS011;10992;48.170;8.596;2022-08-19T10:43:32;35.15;;;31.30;;
21661;SDS011;10992;48.170;8.596;2022-08-19T10:46:02;33.67;;;30.10;;
21661;SDS011;10992;48.170;8.596;2022-08-19T10:48:39;34.95;;;31.10;;
21661;SDS011;10992;48.170;8.596;2022-08-19T10:51:07;32.33;;;28.70;;
21661;SDS011;10992;48.170;8.596;2022-08-19T10:53:54;33.13;;;29.70;;
21661;SDS011;10992;48.170;8.596;2022-08-19T10:56:22;33.75;;;29.23;;
21661;SDS011;10992;48.170;8.596;2022-08-19T10:59:07;32.25;;;28.75;;
21661;SDS011;10992;48.170;8.596;2022-08-19T11:01:35;32.78;;;29.38;;
21661;SDS011;10992;48.170;8.596;2022-08-19T11:04:02;33.33;;;29.20;;
21661;SDS011;10992;48.170;8.596;2022-08-19T11:06:33;31.08;;;27.67;;
21661;SDS011;10992;48.170;8.596;2022-08-19T11:09:00;30.60;;;27.42;;
21661;SDS011;10992;48.170;8.596;2022-08-19T11:11:27;29.75;;;25.83;;
21661;SDS011;10992;48.170;8.596;2022-08-19T11:13:54;29.40;;;26.13;;
21661;SDS011;10992;48.170;8.596;2022-08-19T11:16:23;27.10;;;24.27;;
21661;SDS011;10992;48.170;8.596;2022-08-19T11:18:53;28.38;;;25.42;;
21661;SDS011;10992;48.170;8.596;2022-08-19T11:21:24;28.40;;;25.50;;
21661;SDS011;10992;48.170;8.596;2022-08-19T11:23:59;29.05;;;26.08;;
21661;SDS011;10992;48.170;8.596;2022-08-19T11:26:30;27.70;;;25.00;;
21661;SDS011;10992;48.170;8.596;2022-08-19T11:28:57;29.30;;;24.38;;
21661;SDS011;10992;48.170;8.596;2022-08-19T11:31:26;26.02;;;23.33;;
21661;SDS011;10992;48.170;8.596;2022-08-19T11:33:57;27.75;;;25.00;;
21661;SDS011;10992;48.170;8.596;2022-08-19T11:36:25;25.88;;;23.27;;
21661;SDS011;10992;48.170;8.596;2022-08-19T11:38:53;26.40;;;23.73;;
21661;SDS011;10992;48.170;8.596;2022-08-19T11:41:21;26.30;;;23.67;;
21661;SDS011;10992;48.170;8.596;2022-08-19T11:43:50;28.35;;;25.45;;
21661;SDS011;10992;48.170;8.596;2022-08-19T11:46:19;26.05;;;23.42;;
21661;SDS011;10992;48.170;8.596;2022-08-19T11:48:49;27.17;;;24.23;;
21661;SDS011;10992;48.170;8.596;2022-08-19T11:51:18;27.15;;;24.27;;
21661;SDS011;10992;48.170;8.596;2022-08-19T11:53:48;26.52;;;23.80;;
21661;SDS011;10992;48.170;8.596;2022-08-19T11:56:16;25.95;;;23.27;;
21661;SDS011;10992;48.170;8.596;2022-08-19T11:58:44;27.27;;;24.40;;
21661;SDS011;10992;48.170;8.596;2022-08-19T12:01:12;29.15;;;25.83;;
21661;SDS011;10992;48.170;8.596;2022-08-19T12:03:42;27.50;;;24.85;;
21661;SDS011;10992;48.170;8.596;2022-08-19T12:06:12;28.95;;;25.80;;
21661;SDS011;10992;48.170;8.596;2022-08-19T12:08:46;27.95;;;24.95;;
21661;SDS011;10992;48.170;8.596;2022-08-19T12:11:13;27.63;;;24.92;;
21661;SDS011;10992;48.170;8.596;2022-08-19T12:13:40;29.63;;;26.63;;
21661;SDS011;10992;48.170;8.596;2022-08-19T12:16:21;28.98;;;26.08;;
21661;SDS011;10992;48.170;8.596;2022-08-19T12:18:54;30.70;;;27.60;;
21661;SDS011;10992;48.170;8.596;2022-08-19T12:21:23;29.58;;;26.67;;
21661;SDS011;10992;48.170;8.596;2022-08-19T12:23:55;32.45;;;28.25;;
21661;SDS011;10992;48.170;8.596;2022-08-19T12:26:25;32.95;;;29.60;;
21661;SDS011;10992;48.170;8.596;2022-08-19T12:28:52;31.55;;;28.15;;
21661;SDS011;10992;48.170;8.596;2022-08-19T12:31:20;34.15;;;30.58;;
21661;SDS011;10992;48.170;8.596;2022-08-19T12:33:47;37.10;;;33.10;;
21661;SDS011;10992;48.170;8.596;2022-08-19T12:36:15;36.00;;;32.30;;
21661;SDS011;10992;48.170;8.596;2022-08-19T12:38:42;35.42;;;31.45;;
21661;SDS011;10992;48.170;8.596;2022-08-19T12:41:11;33.05;;;29.83;;
21661;SDS011;10992;48.170;8.596;2022-08-19T12:43:40;35.22;;;31.65;;
21661;SDS011;10992;48.170;8.596;2022-08-19T12:46:08;33.05;;;29.65;;
21661;SDS011;10992;48.170;8.596;2022-08-19T12:48:37;32.30;;;29.00;;
21661;SDS011;10992;48.170;8.596;2022-08-19T12:51:09;35.80;;;31.90;;
21661;SDS011;10992;48.170;8.596;2022-08-19T12:53:38;33.30;;;29.90;;
21661;SDS011;10992;48.170;8.596;2022-08-19T12:56:07;33.38;;;29.90;;
21661;SDS011;10992;48.170;8.596;2022-08-19T12:58:38;33.63;;;30.15;;
21661;SDS011;10992;48.170;8.596;2022-08-19T13:01:16;32.53;;;29.23;;
21661;SDS011;10992;48.170;8.596;2022-08-19T13:03:48;33.90;;;30.40;;
21661;SDS011;10992;48.170;8.596;2022-08-19T13:06:16;32.25;;;28.98;;
21661;SDS011;10992;48.170;8.596;2022-08-19T13:08:45;33.60;;;30.25;;
21661;SDS011;10992;48.170;8.596;2022-08-19T13:11:13;30.02;;;27.10;;
21661;SDS011;10992;48.170;8.596;2022-08-19T13:13:44;29.85;;;26.73;;
21661;SDS011;10992;48.170;8.596;2022-08-19T13:16:12;30.27;;;27.10;;
21661;SDS011;10992;48.170;8.596;2022-08-19T13:18:41;31.02;;;27.83;;
21661;SDS011;10992;48.170;8.596;2022-08-19T13:21:10;31.35;;;28.25;;
21661;SDS011;10992;48.170;8.596;2022-08-19T13:23:39;29.75;;;26.75;;
21661;SDS011;10992;48.170;8.596;2022-08-19T13:26:07;29.63;;;26.63;;
21661;SDS011;10992;48.170;8.596;2022-08-19T13:28:35;26.38;;;23.77;;
21661;SDS011;10992;48.170;8.596;2022-08-19T13:31:22;26.77;;;23.95;;
21661;SDS011;10992;48.170;8.596;2022-08-19T13:34:08;29.10;;;25.95;;
21661;SDS011;10992;48.170;8.596;2022-08-19T13:36:36;25.88;;;23.33;;
21661;SDS011;10992;48.170;8.596;2022-08-19T13:39:04;25.90;;;23.33;;
21661;SDS011;10992;48.170;8.596;2022-08-19T13:41:33;27.20;;;24.42;;
21661;SDS011;10992;48.170;8.596;2022-08-19T13:44:01;28.15;;;24.92;;
21661;SDS011;10992;48.170;8.596;2022-08-19T13:46:28;26.40;;;23.52;;
21661;SDS011;10992;48.170;8.596;2022-08-19T13:48:56;24.77;;;22.13;;
21661;SDS011;10992;48.170;8.596;2022-08-19T13:51:23;24.42;;;21.92;;
21661;SDS011;10992;48.170;8.596;2022-08-19T13:53:50;22.83;;;20.60;;
21661;SDS011;10992;48.170;8.596;2022-08-19T13:56:18;22.65;;;20.35;;
21661;SDS011;10992;48.170;8.596;2022-08-19T13:58:51;21.70;;;19.60;;
21661;SDS011;10992;48.170;8.596;2022-08-19T14:01:23;21.60;;;19.35;;
21661;SDS011;10992;48.170;8.596;2022-08-19T14:03:50;19.67;;;17.67;;
21661;SDS011;10992;48.170;8.596;2022-08-19T14:06:17;20.13;;;17.98;;
21661;SDS011;10992;48.170;8.596;2022-08-19T14:08:45;18.58;;;16.83;;
21661;SDS011;10992;48.170;8.596;2022-08-19T14:11:12;21.77;;;19.63;;
21661;SDS011;10992;48.170;8.596;2022-08-19T14:13:39;19.27;;;17.10;;
21661;SDS011;10992;48.170;8.596;2022-08-19T14:16:08;16.75;;;14.93;;
21661;SDS011;10992;48.170;8.596;2022-08-19T14:18:36;17.98;;;15.82;;
21661;SDS011;10992;48.170;8.596;2022-08-19T14:21:04;17.40;;;15.70;;
21661;SDS011;10992;48.170;8.596;2022-08-19T14:23:32;16.08;;;14.52;;
21661;SDS011;10992;48.170;8.596;2022-08-19T14:26:03;16.15;;;14.32;;
21661;SDS011;10992;48.170;8.596;2022-08-19T14:28:31;15.35;;;13.85;;
21661;SDS011;10992;48.170;8.596;2022-08-19T14:30:58;17.88;;;14.32;;
21661;SDS011;10992;48.170;8.596;2022-08-19T14:33:25;17.63;;;14.82;;
21661;SDS011;10992;48.170;8.596;2022-08-19T14:35:55;15.32;;;13.95;;
21661;SDS011;10992;48.170;8.596;2022-08-19T14:38:25;15.85;;;14.35;;
21661;SDS011;10992;48.170;8.596;2022-08-19T14:43:53;15.18;;;13.57;;
21661;SDS011;10992;48.170;8.596;2022-08-19T14:46:22;16.95;;;15.23;;
21661;SDS011;10992;48.170;8.596;2022-08-19T14:48:55;16.85;;;15.20;;
21661;SDS011;10992;48.170;8.596;2022-08-19T14:51:25;17.05;;;15.32;;
21661;SDS011;10992;48.170;8.596;2022-08-19T14:53:55;16.55;;;14.85;;